CheckWX is a tool to help pilots better visualize weather data.  It is not intended as a substitute for an official pre-flight weather briefing.

21:37:59 UTC

KBTP METAR
Pittsburgh / Butler Regional Airport
Butler, Pennsylvania, USA
Current

2 hours ago

KBTP 171956Z AUTO 04009KT 10SM CLR 24/14 A3014 RMK AO2 SLP206 T02440144 PNO $
Observed
Sep-17 @ 19:56 UTC
Wind
  • 040° at 9 KTS
Visibility
10 SM
Flight Rules
VFR
Cloud Levels
  • Clear skies
Temperature
24°C / 75°F
Dewpoint
14°C / 57°F
Humidity
54%
Altimeter
30.14" Hg
Pressure
1020.62 hPa
Previous

3 hours ago

KBTP 171856Z AUTO 04009KT 10SM FEW043 24/15 A3015 RMK AO2 SLP209 T02440150 PNO $
Observed
Sep-17 @ 18:56 UTC
Wind
  • 040° at 9 KTS
Visibility
10 SM
Flight Rules
VFR
Cloud Levels
  • Few at 4,300' AGL
Temperature
24°C / 75°F
Dewpoint
15°C / 59°F
Humidity
57%
Altimeter
30.15" Hg
Pressure
1021.02 hPa
Previous

4 hours ago

KBTP 171756Z AUTO 10008KT 10SM CLR 24/15 A3017 RMK AO2 SLP215 6//// T02390150 10239 20167 58007 PNO $
Observed
Sep-17 @ 17:56 UTC
Wind
  • 100° at 8 KTS
Visibility
10 SM
Flight Rules
VFR
Cloud Levels
  • Clear skies
Temperature
24°C / 75°F
Dewpoint
15°C / 59°F
Humidity
57%
Altimeter
30.17" Hg
Pressure
1021.72 hPa